Bhakkar Weather



Bhakkar's Current Weather

Temprature 21.48o clear sky

clear sky

Rain: 0 %

Min Temprature21.48o
Max Temprature21.48o
Humidity22
Wind Speed1.85 m/h
Sun Rise06:28:35
Sun Set17:30:12
Current Time: 28-Oct-2020 07:50:43
Lat/Lon: 31.63, 71.07




Bhakkar's Geo Location



Bhakkar's Weather Forecast

Time Overall Temp Min Temp Max Temp Humidity Wind Speed Rain
28-Oct-2020 (Wed)
08:00:00 clear sky 19.190 19.190 21.480 25 1.85 m/h 0 %
11:00:00 clear sky 25.800 25.800 28.220 18 2.27 m/h 0 %
14:00:00 clear sky 30.750 30.750 31.690 13 2.77 m/h 0 %
17:00:00 clear sky 27.060 27.060 27.140 16 1.8 m/h 0 %
20:00:00 clear sky 19.800 19.800 19.800 24 0.86 m/h 0 %
23:00:00 clear sky 20.280 20.280 20.280 24 1.96 m/h 0 %
29-Oct-2020 (Thu)
02:00:00 clear sky 19.590 19.590 19.590 25 2.89 m/h 0 %
05:00:00 clear sky 17.740 17.740 17.740 28 2.63 m/h 0 %
08:00:00 clear sky 21.130 21.130 21.130 22 3.02 m/h 0 %
11:00:00 clear sky 29.030 29.030 29.030 14 3.51 m/h 0 %
14:00:00 clear sky 31.850 31.850 31.850 12 3.53 m/h 0 %
17:00:00 clear sky 27.420 27.420 27.420 15 2.17 m/h 0 %
20:00:00 clear sky 19.450 19.450 19.450 25 0.77 m/h 0 %
23:00:00 clear sky 20.540 20.540 20.540 23 2.34 m/h 0 %
30-Oct-2020 (Fri)
02:00:00 clear sky 20.160 20.160 20.160 24 3.25 m/h 0 %
05:00:00 clear sky 18.670 18.670 18.670 26 2.53 m/h 0 %
08:00:00 clear sky 23.100 23.100 23.100 20 1.31 m/h 0 %
11:00:00 clear sky 30.200 30.200 30.200 13 2.11 m/h 0 %
14:00:00 clear sky 32.670 32.670 32.670 11 2.49 m/h 0 %
17:00:00 clear sky 28.360 28.360 28.360 14 2.55 m/h 0 %
20:00:00 clear sky 21.030 21.030 21.030 22 1.74 m/h 0 %
23:00:00 clear sky 18.130 18.130 18.130 26 0.61 m/h 0 %
31-Oct-2020 (Sat)
02:00:00 clear sky 17.270 17.270 17.270 27 0.92 m/h 0 %
05:00:00 clear sky 16.170 16.170 16.170 29 0.57 m/h 0 %
08:00:00 clear sky 24.230 24.230 24.230 18 0.96 m/h 0 %
11:00:00 clear sky 30.740 30.740 30.740 12 1.3 m/h 0 %
14:00:00 clear sky 33.140 33.140 33.140 11 0.5 m/h 0 %
17:00:00 clear sky 26.990 26.990 26.990 15 1.34 m/h 0 %
20:00:00 clear sky 21.990 21.990 21.990 21 2.16 m/h 0 %
23:00:00 clear sky 18.780 18.780 18.780 25 1.49 m/h 0 %
01-Nov-2020 (Sun)
02:00:00 clear sky 16.940 16.940 16.940 28 1 m/h 0 %
05:00:00 clear sky 15.640 15.640 15.640 31 0.7 m/h 0 %
08:00:00 clear sky 23.820 23.820 23.820 19 0.74 m/h 0 %
11:00:00 clear sky 30.730 30.730 30.730 12 1.44 m/h 0 %
14:00:00 clear sky 33.040 33.040 33.040 9 1.47 m/h 0 %
17:00:00 clear sky 25.630 25.630 25.630 14 1.11 m/h 0 %
20:00:00 clear sky 19.790 19.790 19.790 22 1.25 m/h 0 %
23:00:00 clear sky 18.530 18.530 18.530 22 1.53 m/h 0 %
02-Nov-2020 (Mon)
02:00:00 clear sky 19.040 19.040 19.040 21 2.23 m/h 0 %
05:00:00 clear sky 16.480 16.480 16.480 24 1.4 m/h 0 %


Bhakkar's Tourist Spots

Historical Places in Bhakkar

Famous Cities (60)